Meteo Giornale » Osservazioni meteo Stati Uniti (USA) » Sandberg

ore: 10:51 - Osservazioni Meteo Sandberg
Lat. 34° 44' N Lon. 118° 43' W Alt. 1378 metri s.l.m.

sereno

22 °C

Sereno

Temp. 24 Ore

14 °C

28 °C

Sud

25.9 Km/h

Dew point 7 °C

Umidità 37 %

Visibilità  10 Km

Il sole sorge alle ore 06:27

Il sole tramonta alle ore 19:22

Data e Ora Cielo e Fenomeni T °C DP °C Um. % Pres. hPa Vis. km Vento km/h
Oggi h: 10:51 sereno Sereno 22 7 37 1019 10 S 25.9
Oggi h: 09:51 sereno Sereno 20 8 45 1019 10 S 24
Oggi h: 08:51 sereno Sereno 18 10 59 1018 10 S 18.5
Oggi h: 07:51 sereno Sereno 15 10 72 1018 10 S/SO 18.5
Oggi h: 06:51 sereno Sereno 14 10 76 1017 10 S 16.7
Oggi h: 05:51 sereno Sereno 14 9 71 1017 10 S/SO 16.7
Oggi h: 04:51 sereno Sereno 16 9 63 1017 10 S/SO 14.8
Oggi h: 03:51 sereno Sereno 16 10 67 1017 10 S 16.7
Oggi h: 02:51 sereno Sereno 16 9 63 1018 10 S/SO 14.8
Oggi h: 01:51 sereno Sereno 17 9 59 1018 10 S 14.8
Oggi h: 00:51 sereno Sereno 18 8 51 1018 10 SO 7.4
Ieri h: 23:51 sereno Sereno 18 9 55 1018 10 SO 9.3
Ieri h: 22:51 sereno Sereno 19 4 37 1018 10 SO 9.3
Ieri h: 21:51 sereno Sereno 19 2 32 1018 10 S 7.4
Ieri h: 20:51 sereno Sereno 21 -2 21 1018 10 S 9.3
Ieri h: 19:51 sereno Sereno 22 -3 18 1017 10 S 11.1
Ieri h: 18:51 sereno Sereno 23 0 21 1017 10 S 18.5
Ieri h: 17:51 sereno Sereno 25 2 22 1017 10 S/SE 24
Ieri h: 16:51 sereno Sereno 27 3 21 1017 10 S/SE 22.2
Ieri h: 15:51 sereno Sereno 27 5 24 1018 10 S/SE 25.9
Ieri h: 14:51 sereno Sereno 27 8 30 1018 10 S/SE 25.9
Ieri h: 13:51 sereno Sereno 28 9 30 1018 10 S 25.9
Ieri h: 12:51 sereno Sereno 27 9 32 1019 10 S/SE 25.9